sensor_id;sensor_type;location;lat;lon;timestamp;P1;durP1;ratioP1;P2;durP2;ratioP2
49193;SDS011;35029;50.804;12.866;2023-11-19T00:00:42;1.15;;;1.00;;
49193;SDS011;35029;50.804;12.866;2023-11-19T00:03:07;3.08;;;1.17;;
49193;SDS011;35029;50.804;12.866;2023-11-19T00:05:33;1.45;;;1.35;;
49193;SDS011;35029;50.804;12.866;2023-11-19T00:07:59;1.10;;;1.00;;
49193;SDS011;35029;50.804;12.866;2023-11-19T00:10:24;1.17;;;0.90;;
49193;SDS011;35029;50.804;12.866;2023-11-19T00:12:50;1.27;;;0.88;;
49193;SDS011;35029;50.804;12.866;2023-11-19T00:15:16;0.80;;;0.80;;
49193;SDS011;35029;50.804;12.866;2023-11-19T00:17:46;0.73;;;0.73;;
49193;SDS011;35029;50.804;12.866;2023-11-19T00:20:13;0.60;;;0.60;;
49193;SDS011;35029;50.804;12.866;2023-11-19T00:22:40;0.60;;;0.60;;
49193;SDS011;35029;50.804;12.866;2023-11-19T00:25:07;0.95;;;0.80;;
49193;SDS011;35029;50.804;12.866;2023-11-19T00:27:33;0.70;;;0.70;;
49193;SDS011;35029;50.804;12.866;2023-11-19T00:29:58;0.40;;;0.40;;
49193;SDS011;35029;50.804;12.866;2023-11-19T00:32:24;0.60;;;0.60;;
49193;SDS011;35029;50.804;12.866;2023-11-19T00:34:49;0.50;;;0.50;;
49193;SDS011;35029;50.804;12.866;2023-11-19T00:37:15;2.30;;;0.43;;
49193;SDS011;35029;50.804;12.866;2023-11-19T00:39:41;0.40;;;0.40;;
49193;SDS011;35029;50.804;12.866;2023-11-19T00:42:07;0.40;;;0.40;;
49193;SDS011;35029;50.804;12.866;2023-11-19T00:44:33;0.30;;;0.30;;
49193;SDS011;35029;50.804;12.866;2023-11-19T00:46:58;0.95;;;0.50;;
49193;SDS011;35029;50.804;12.866;2023-11-19T00:49:25;0.40;;;0.40;;
49193;SDS011;35029;50.804;12.866;2023-11-19T00:51:50;0.38;;;0.38;;
49193;SDS011;35029;50.804;12.866;2023-11-19T00:54:16;0.47;;;0.47;;
49193;SDS011;35029;50.804;12.866;2023-11-19T00:56:42;0.40;;;0.40;;
49193;SDS011;35029;50.804;12.866;2023-11-19T00:59:07;0.40;;;0.40;;
49193;SDS011;35029;50.804;12.866;2023-11-19T01:01:33;0.47;;;0.47;;
49193;SDS011;35029;50.804;12.866;2023-11-19T01:03:59;0.63;;;0.63;;
49193;SDS011;35029;50.804;12.866;2023-11-19T01:06:28;0.63;;;0.50;;
49193;SDS011;35029;50.804;12.866;2023-11-19T01:08:54;0.40;;;0.40;;
49193;SDS011;35029;50.804;12.866;2023-11-19T01:11:22;0.57;;;0.40;;
49193;SDS011;35029;50.804;12.866;2023-11-19T01:13:49;0.40;;;0.40;;
49193;SDS011;35029;50.804;12.866;2023-11-19T01:16:16;0.40;;;0.40;;
49193;SDS011;35029;50.804;12.866;2023-11-19T01:18:42;0.40;;;0.40;;
49193;SDS011;35029;50.804;12.866;2023-11-19T01:21:07;0.40;;;0.40;;
49193;SDS011;35029;50.804;12.866;2023-11-19T01:23:34;0.52;;;0.50;;
49193;SDS011;35029;50.804;12.866;2023-11-19T01:25:59;0.30;;;0.30;;
49193;SDS011;35029;50.804;12.866;2023-11-19T01:28:25;0.40;;;0.40;;
49193;SDS011;35029;50.804;12.866;2023-11-19T01:30:51;1.27;;;0.93;;
49193;SDS011;35029;50.804;12.866;2023-11-19T01:33:17;0.55;;;0.50;;
49193;SDS011;35029;50.804;12.866;2023-11-19T01:35:42;7.03;;;0.70;;
49193;SDS011;35029;50.804;12.866;2023-11-19T01:38:08;0.50;;;0.50;;
49193;SDS011;35029;50.804;12.866;2023-11-19T01:40:36;0.50;;;0.50;;
49193;SDS011;35029;50.804;12.866;2023-11-19T01:43:03;0.40;;;0.40;;
49193;SDS011;35029;50.804;12.866;2023-11-19T01:45:29;0.40;;;0.40;;
49193;SDS011;35029;50.804;12.866;2023-11-19T01:47:56;0.47;;;0.47;;
49193;SDS011;35029;50.804;12.866;2023-11-19T01:50:23;0.75;;;0.57;;
49193;SDS011;35029;50.804;12.866;2023-11-19T01:52:52;0.40;;;0.40;;
49193;SDS011;35029;50.804;12.866;2023-11-19T01:55:20;0.70;;;0.60;;
49193;SDS011;35029;50.804;12.866;2023-11-19T01:57:47;0.50;;;0.50;;
49193;SDS011;35029;50.804;12.866;2023-11-19T02:00:14;0.40;;;0.40;;
49193;SDS011;35029;50.804;12.866;2023-11-19T02:02:42;0.45;;;0.45;;
49193;SDS011;35029;50.804;12.866;2023-11-19T02:05:14;2.33;;;0.50;;
49193;SDS011;35029;50.804;12.866;2023-11-19T02:07:39;0.80;;;0.50;;
49193;SDS011;35029;50.804;12.866;2023-11-19T02:10:07;0.40;;;0.40;;
49193;SDS011;35029;50.804;12.866;2023-11-19T02:12:38;0.40;;;0.40;;
49193;SDS011;35029;50.804;12.866;2023-11-19T02:15:08;0.40;;;0.40;;
49193;SDS011;35029;50.804;12.866;2023-11-19T02:17:35;0.40;;;0.40;;
49193;SDS011;35029;50.804;12.866;2023-11-19T02:20:03;0.57;;;0.50;;
49193;SDS011;35029;50.804;12.866;2023-11-19T02:25:00;0.43;;;0.43;;
49193;SDS011;35029;50.804;12.866;2023-11-19T02:27:55;0.40;;;0.40;;
49193;SDS011;35029;50.804;12.866;2023-11-19T02:30:24;0.65;;;0.60;;
49193;SDS011;35029;50.804;12.866;2023-11-19T02:33:00;0.73;;;0.50;;
49193;SDS011;35029;50.804;12.866;2023-11-19T02:35:31;0.47;;;0.47;;
49193;SDS011;35029;50.804;12.866;2023-11-19T02:37:58;0.70;;;0.70;;
49193;SDS011;35029;50.804;12.866;2023-11-19T02:40:29;4.05;;;0.68;;
49193;SDS011;35029;50.804;12.866;2023-11-19T02:42:59;2.42;;;0.47;;
49193;SDS011;35029;50.804;12.866;2023-11-19T02:45:25;0.90;;;0.80;;
49193;SDS011;35029;50.804;12.866;2023-11-19T02:47:51;0.50;;;0.50;;
49193;SDS011;35029;50.804;12.866;2023-11-19T02:50:18;0.50;;;0.50;;
49193;SDS011;35029;50.804;12.866;2023-11-19T02:52:51;0.57;;;0.57;;
49193;SDS011;35029;50.804;12.866;2023-11-19T02:55:18;0.50;;;0.50;;
49193;SDS011;35029;50.804;12.866;2023-11-19T02:57:45;0.52;;;0.52;;
49193;SDS011;35029;50.804;12.866;2023-11-19T03:00:17;1.25;;;0.60;;
49193;SDS011;35029;50.804;12.866;2023-11-19T03:03:01;0.50;;;0.50;;
49193;SDS011;35029;50.804;12.866;2023-11-19T03:05:35;0.50;;;0.50;;
49193;SDS011;35029;50.804;12.866;2023-11-19T03:08:00;0.70;;;0.60;;
49193;SDS011;35029;50.804;12.866;2023-11-19T03:10:26;0.95;;;0.50;;
49193;SDS011;35029;50.804;12.866;2023-11-19T03:12:52;0.60;;;0.50;;
49193;SDS011;35029;50.804;12.866;2023-11-19T03:15:17;0.50;;;0.50;;
49193;SDS011;35029;50.804;12.866;2023-11-19T03:17:43;4.32;;;0.65;;
49193;SDS011;35029;50.804;12.866;2023-11-19T03:20:09;1.85;;;0.93;;
49193;SDS011;35029;50.804;12.866;2023-11-19T03:22:37;1.08;;;0.65;;
49193;SDS011;35029;50.804;12.866;2023-11-19T03:25:03;0.50;;;0.50;;
49193;SDS011;35029;50.804;12.866;2023-11-19T03:27:29;0.93;;;0.52;;
49193;SDS011;35029;50.804;12.866;2023-11-19T03:29:55;0.60;;;0.60;;
49193;SDS011;35029;50.804;12.866;2023-11-19T03:32:20;0.40;;;0.40;;
49193;SDS011;35029;50.804;12.866;2023-11-19T03:34:46;0.40;;;0.40;;
49193;SDS011;35029;50.804;12.866;2023-11-19T03:37:11;0.50;;;0.50;;
49193;SDS011;35029;50.804;12.866;2023-11-19T03:39:38;0.93;;;0.60;;
49193;SDS011;35029;50.804;12.866;2023-11-19T03:42:03;0.80;;;0.50;;
49193;SDS011;35029;50.804;12.866;2023-11-19T03:44:29;0.47;;;0.47;;
49193;SDS011;35029;50.804;12.866;2023-11-19T03:46:55;0.65;;;0.32;;
49193;SDS011;35029;50.804;12.866;2023-11-19T03:49:20;0.70;;;0.60;;
49193;SDS011;35029;50.804;12.866;2023-11-19T03:51:46;0.38;;;0.38;;
49193;SDS011;35029;50.804;12.866;2023-11-19T03:54:12;0.47;;;0.45;;
49193;SDS011;35029;50.804;12.866;2023-11-19T03:56:37;1.00;;;0.57;;
49193;SDS011;35029;50.804;12.866;2023-11-19T03:59:03;0.57;;;0.50;;
49193;SDS011;35029;50.804;12.866;2023-11-19T04:01:28;1.27;;;0.43;;
49193;SDS011;35029;50.804;12.866;2023-11-19T04:03:54;0.73;;;0.40;;
49193;SDS011;35029;50.804;12.866;2023-11-19T04:06:21;1.75;;;0.40;;
49193;SDS011;35029;50.804;12.866;2023-11-19T04:08:46;0.43;;;0.30;;
49193;SDS011;35029;50.804;12.866;2023-11-19T04:11:12;0.40;;;0.40;;
49193;SDS011;35029;50.804;12.866;2023-11-19T04:13:37;0.50;;;0.50;;
49193;SDS011;35029;50.804;12.866;2023-11-19T04:16:03;0.63;;;0.43;;
49193;SDS011;35029;50.804;12.866;2023-11-19T04:18:29;0.30;;;0.30;;
49193;SDS011;35029;50.804;12.866;2023-11-19T04:20:56;0.30;;;0.30;;
49193;SDS011;35029;50.804;12.866;2023-11-19T04:23:21;0.30;;;0.30;;
49193;SDS011;35029;50.804;12.866;2023-11-19T04:25:47;0.40;;;0.40;;
49193;SDS011;35029;50.804;12.866;2023-11-19T04:28:12;0.30;;;0.30;;
49193;SDS011;35029;50.804;12.866;2023-11-19T04:30:40;0.40;;;0.40;;
49193;SDS011;35029;50.804;12.866;2023-11-19T04:33:05;0.40;;;0.40;;
49193;SDS011;35029;50.804;12.866;2023-11-19T04:35:31;0.30;;;0.30;;
49193;SDS011;35029;50.804;12.866;2023-11-19T04:37:56;0.40;;;0.40;;
49193;SDS011;35029;50.804;12.866;2023-11-19T04:40:22;0.30;;;0.30;;
49193;SDS011;35029;50.804;12.866;2023-11-19T04:42:48;0.55;;;0.52;;
49193;SDS011;35029;50.804;12.866;2023-11-19T04:45:14;0.43;;;0.40;;
49193;SDS011;35029;50.804;12.866;2023-11-19T04:47:41;3.60;;;0.50;;
49193;SDS011;35029;50.804;12.866;2023-11-19T04:50:07;0.40;;;0.40;;
49193;SDS011;35029;50.804;12.866;2023-11-19T04:52:38;0.40;;;0.40;;
49193;SDS011;35029;50.804;12.866;2023-11-19T04:55:10;5.45;;;0.43;;
49193;SDS011;35029;50.804;12.866;2023-11-19T04:57:37;0.35;;;0.35;;
49193;SDS011;35029;50.804;12.866;2023-11-19T05:00:04;1.35;;;0.50;;
49193;SDS011;35029;50.804;12.866;2023-11-19T05:02:30;0.35;;;0.35;;
49193;SDS011;35029;50.804;12.866;2023-11-19T05:04:56;0.40;;;0.40;;
49193;SDS011;35029;50.804;12.866;2023-11-19T05:07:22;1.02;;;0.50;;
49193;SDS011;35029;50.804;12.866;2023-11-19T05:09:47;0.43;;;0.43;;
49193;SDS011;35029;50.804;12.866;2023-11-19T05:12:13;0.40;;;0.40;;
49193;SDS011;35029;50.804;12.866;2023-11-19T05:14:38;1.00;;;0.40;;
49193;SDS011;35029;50.804;12.866;2023-11-19T05:17:04;0.75;;;0.40;;
49193;SDS011;35029;50.804;12.866;2023-11-19T05:19:29;0.50;;;0.50;;
49193;SDS011;35029;50.804;12.866;2023-11-19T05:21:55;0.90;;;0.70;;
49193;SDS011;35029;50.804;12.866;2023-11-19T05:24:20;2.38;;;0.68;;
49193;SDS011;35029;50.804;12.866;2023-11-19T05:26:46;0.47;;;0.47;;
49193;SDS011;35029;50.804;12.866;2023-11-19T05:29:12;0.75;;;0.55;;
49193;SDS011;35029;50.804;12.866;2023-11-19T05:31:38;0.40;;;0.40;;
49193;SDS011;35029;50.804;12.866;2023-11-19T05:34:03;0.50;;;0.50;;
49193;SDS011;35029;50.804;12.866;2023-11-19T05:36:29;0.50;;;0.50;;
49193;SDS011;35029;50.804;12.866;2023-11-19T05:38:55;2.05;;;0.73;;
49193;SDS011;35029;50.804;12.866;2023-11-19T05:41:21;0.40;;;0.40;;
49193;SDS011;35029;50.804;12.866;2023-11-19T05:43:46;1.20;;;0.50;;
49193;SDS011;35029;50.804;12.866;2023-11-19T05:46:12;0.70;;;0.50;;
49193;SDS011;35029;50.804;12.866;2023-11-19T05:48:38;0.75;;;0.60;;
49193;SDS011;35029;50.804;12.866;2023-11-19T05:51:04;0.50;;;0.50;;
49193;SDS011;35029;50.804;12.866;2023-11-19T05:53:30;0.85;;;0.50;;
49193;SDS011;35029;50.804;12.866;2023-11-19T05:55:57;0.47;;;0.40;;
49193;SDS011;35029;50.804;12.866;2023-11-19T05:58:23;1.52;;;0.80;;
49193;SDS011;35029;50.804;12.866;2023-11-19T06:00:57;0.88;;;0.60;;
49193;SDS011;35029;50.804;12.866;2023-11-19T06:03:26;0.65;;;0.60;;
49193;SDS011;35029;50.804;12.866;2023-11-19T06:05:51;0.47;;;0.47;;
49193;SDS011;35029;50.804;12.866;2023-11-19T06:08:17;0.45;;;0.40;;
49193;SDS011;35029;50.804;12.866;2023-11-19T06:10:45;0.50;;;0.50;;
49193;SDS011;35029;50.804;12.866;2023-11-19T06:13:15;0.50;;;0.50;;
49193;SDS011;35029;50.804;12.866;2023-11-19T06:15:42;0.50;;;0.50;;
49193;SDS011;35029;50.804;12.866;2023-11-19T06:18:08;0.63;;;0.60;;
49193;SDS011;35029;50.804;12.866;2023-11-19T06:20:34;0.40;;;0.40;;
49193;SDS011;35029;50.804;12.866;2023-11-19T06:23:00;0.88;;;0.40;;
49193;SDS011;35029;50.804;12.866;2023-11-19T06:25:25;0.50;;;0.50;;
49193;SDS011;35029;50.804;12.866;2023-11-19T06:27:51;0.73;;;0.73;;
49193;SDS011;35029;50.804;12.866;2023-11-19T06:30:17;0.90;;;0.45;;
49193;SDS011;35029;50.804;12.866;2023-11-19T06:32:43;0.68;;;0.40;;
49193;SDS011;35029;50.804;12.866;2023-11-19T06:35:09;0.73;;;0.43;;
49193;SDS011;35029;50.804;12.866;2023-11-19T06:37:38;0.30;;;0.30;;
49193;SDS011;35029;50.804;12.866;2023-11-19T06:40:05;0.30;;;0.30;;
49193;SDS011;35029;50.804;12.866;2023-11-19T06:42:31;0.50;;;0.50;;
49193;SDS011;35029;50.804;12.866;2023-11-19T06:44:56;0.55;;;0.50;;
49193;SDS011;35029;50.804;12.866;2023-11-19T06:47:25;1.05;;;0.70;;
49193;SDS011;35029;50.804;12.866;2023-11-19T06:49:52;0.95;;;0.50;;
49193;SDS011;35029;50.804;12.866;2023-11-19T06:52:17;0.57;;;0.57;;
49193;SDS011;35029;50.804;12.866;2023-11-19T06:54:43;0.65;;;0.50;;
49193;SDS011;35029;50.804;12.866;2023-11-19T06:57:10;0.57;;;0.50;;
49193;SDS011;35029;50.804;12.866;2023-11-19T06:59:36;0.73;;;0.35;;
49193;SDS011;35029;50.804;12.866;2023-11-19T07:02:02;1.88;;;0.65;;
49193;SDS011;35029;50.804;12.866;2023-11-19T07:04:28;0.50;;;0.50;;
49193;SDS011;35029;50.804;12.866;2023-11-19T07:06:53;1.35;;;0.50;;
49193;SDS011;35029;50.804;12.866;2023-11-19T07:09:19;0.40;;;0.40;;
49193;SDS011;35029;50.804;12.866;2023-11-19T07:11:45;0.75;;;0.40;;
49193;SDS011;35029;50.804;12.866;2023-11-19T07:14:11;0.50;;;0.50;;
49193;SDS011;35029;50.804;12.866;2023-11-19T07:16:37;0.57;;;0.43;;
49193;SDS011;35029;50.804;12.866;2023-11-19T07:19:04;0.50;;;0.50;;
49193;SDS011;35029;50.804;12.866;2023-11-19T07:21:30;0.50;;;0.50;;
49193;SDS011;35029;50.804;12.866;2023-11-19T07:23:56;0.60;;;0.60;;
49193;SDS011;35029;50.804;12.866;2023-11-19T07:26:22;1.35;;;0.82;;
49193;SDS011;35029;50.804;12.866;2023-11-19T07:28:48;0.70;;;0.60;;
49193;SDS011;35029;50.804;12.866;2023-11-19T07:31:15;0.60;;;0.60;;
49193;SDS011;35029;50.804;12.866;2023-11-19T07:33:40;0.60;;;0.60;;
49193;SDS011;35029;50.804;12.866;2023-11-19T07:36:08;1.08;;;0.63;;
49193;SDS011;35029;50.804;12.866;2023-11-19T07:38:34;0.80;;;0.80;;
49193;SDS011;35029;50.804;12.866;2023-11-19T07:41:00;0.80;;;0.80;;
49193;SDS011;35029;50.804;12.866;2023-11-19T07:43:26;2.25;;;0.95;;
49193;SDS011;35029;50.804;12.866;2023-11-19T07:45:51;1.13;;;0.60;;
49193;SDS011;35029;50.804;12.866;2023-11-19T07:48:17;4.80;;;0.98;;
49193;SDS011;35029;50.804;12.866;2023-11-19T07:50:48;0.60;;;0.60;;
49193;SDS011;35029;50.804;12.866;2023-11-19T07:53:16;1.23;;;0.82;;
49193;SDS011;35029;50.804;12.866;2023-11-19T07:55:41;1.33;;;1.00;;
49193;SDS011;35029;50.804;12.866;2023-11-19T07:58:07;1.13;;;0.75;;
49193;SDS011;35029;50.804;12.866;2023-11-19T08:00:32;1.15;;;0.80;;
49193;SDS011;35029;50.804;12.866;2023-11-19T08:02:58;1.15;;;0.85;;
49193;SDS011;35029;50.804;12.866;2023-11-19T08:05:24;1.55;;;0.75;;
49193;SDS011;35029;50.804;12.866;2023-11-19T08:07:51;1.17;;;0.80;;
49193;SDS011;35029;50.804;12.866;2023-11-19T08:10:18;1.30;;;0.60;;
49193;SDS011;35029;50.804;12.866;2023-11-19T08:12:44;1.17;;;0.80;;
49193;SDS011;35029;50.804;12.866;2023-11-19T08:15:10;0.65;;;0.65;;
49193;SDS011;35029;50.804;12.866;2023-11-19T08:17:36;1.95;;;1.17;;
49193;SDS011;35029;50.804;12.866;2023-11-19T08:20:02;2.05;;;0.98;;
49193;SDS011;35029;50.804;12.866;2023-11-19T08:22:30;1.52;;;0.65;;
49193;SDS011;35029;50.804;12.866;2023-11-19T08:24:56;2.85;;;0.88;;
49193;SDS011;35029;50.804;12.866;2023-11-19T08:27:22;3.05;;;1.10;;
49193;SDS011;35029;50.804;12.866;2023-11-19T08:29:54;3.22;;;0.88;;
49193;SDS011;35029;50.804;12.866;2023-11-19T08:32:24;1.70;;;0.98;;
49193;SDS011;35029;50.804;12.866;2023-11-19T08:34:49;2.10;;;0.80;;
49193;SDS011;35029;50.804;12.866;2023-11-19T08:37:15;1.77;;;0.55;;
49193;SDS011;35029;50.804;12.866;2023-11-19T08:39:43;0.80;;;0.70;;
49193;SDS011;35029;50.804;12.866;2023-11-19T08:42:08;2.53;;;0.95;;
49193;SDS011;35029;50.804;12.866;2023-11-19T08:44:34;1.92;;;1.05;;
49193;SDS011;35029;50.804;12.866;2023-11-19T08:47:01;2.08;;;1.00;;
49193;SDS011;35029;50.804;12.866;2023-11-19T08:49:27;2.47;;;1.20;;
49193;SDS011;35029;50.804;12.866;2023-11-19T08:51:52;2.67;;;0.95;;
49193;SDS011;35029;50.804;12.866;2023-11-19T08:54:18;2.03;;;0.93;;
49193;SDS011;35029;50.804;12.866;2023-11-19T08:56:45;2.38;;;0.90;;
49193;SDS011;35029;50.804;12.866;2023-11-19T08:59:11;3.55;;;1.10;;
49193;SDS011;35029;50.804;12.866;2023-11-19T09:01:36;3.70;;;1.10;;
49193;SDS011;35029;50.804;12.866;2023-11-19T09:04:02;1.45;;;0.90;;
49193;SDS011;35029;50.804;12.866;2023-11-19T09:06:29;5.65;;;1.20;;
49193;SDS011;35029;50.804;12.866;2023-11-19T09:08:57;3.75;;;1.20;;
49193;SDS011;35029;50.804;12.866;2023-11-19T09:11:26;3.25;;;0.98;;
49193;SDS011;35029;50.804;12.866;2023-11-19T09:13:52;5.30;;;1.20;;
49193;SDS011;35029;50.804;12.866;2023-11-19T09:16:18;2.80;;;0.75;;
49193;SDS011;35029;50.804;12.866;2023-11-19T09:18:43;1.23;;;0.70;;
49193;SDS011;35029;50.804;12.866;2023-11-19T09:21:12;2.97;;;0.98;;
49193;SDS011;35029;50.804;12.866;2023-11-19T09:23:38;1.33;;;0.90;;
49193;SDS011;35029;50.804;12.866;2023-11-19T09:26:05;4.20;;;1.40;;
49193;SDS011;35029;50.804;12.866;2023-11-19T09:28:31;3.72;;;1.23;;
49193;SDS011;35029;50.804;12.866;2023-11-19T09:30:57;3.72;;;1.10;;
49193;SDS011;35029;50.804;12.866;2023-11-19T09:33:24;1.80;;;0.93;;
49193;SDS011;35029;50.804;12.866;2023-11-19T09:35:49;2.80;;;0.85;;
49193;SDS011;35029;50.804;12.866;2023-11-19T09:38:16;2.90;;;0.90;;
49193;SDS011;35029;50.804;12.866;2023-11-19T09:40:42;2.40;;;0.85;;
49193;SDS011;35029;50.804;12.866;2023-11-19T09:43:07;2.65;;;1.17;;
49193;SDS011;35029;50.804;12.866;2023-11-19T09:45:52;1.00;;;0.90;;
49193;SDS011;35029;50.804;12.866;2023-11-19T09:48:18;4.72;;;0.90;;
49193;SDS011;35029;50.804;12.866;2023-11-19T09:50:45;0.85;;;0.73;;
49193;SDS011;35029;50.804;12.866;2023-11-19T09:53:12;2.40;;;1.02;;
49193;SDS011;35029;50.804;12.866;2023-11-19T09:55:39;4.00;;;1.05;;
49193;SDS011;35029;50.804;12.866;2023-11-19T09:58:05;2.28;;;0.77;;
49193;SDS011;35029;50.804;12.866;2023-11-19T10:00:32;3.08;;;0.80;;
49193;SDS011;35029;50.804;12.866;2023-11-19T10:02:57;1.42;;;0.95;;
49193;SDS011;35029;50.804;12.866;2023-11-19T10:05:24;4.22;;;1.08;;
49193;SDS011;35029;50.804;12.866;2023-11-19T10:07:52;1.80;;;1.20;;
49193;SDS011;35029;50.804;12.866;2023-11-19T10:10:21;2.72;;;1.10;;
49193;SDS011;35029;50.804;12.866;2023-11-19T10:12:46;4.32;;;1.00;;
49193;SDS011;35029;50.804;12.866;2023-11-19T10:15:21;5.60;;;1.50;;
49193;SDS011;35029;50.804;12.866;2023-11-19T10:17:52;3.40;;;1.42;;
49193;SDS011;35029;50.804;12.866;2023-11-19T10:20:23;2.90;;;1.10;;
49193;SDS011;35029;50.804;12.866;2023-11-19T10:23:02;2.45;;;1.20;;
49193;SDS011;35029;50.804;12.866;2023-11-19T10:25:28;1.15;;;1.00;;
49193;SDS011;35029;50.804;12.866;2023-11-19T10:27:55;1.90;;;1.20;;
49193;SDS011;35029;50.804;12.866;2023-11-19T10:30:26;2.67;;;1.48;;
49193;SDS011;35029;50.804;12.866;2023-11-19T10:33:02;3.55;;;1.25;;
49193;SDS011;35029;50.804;12.866;2023-11-19T10:35:30;4.13;;;1.55;;
49193;SDS011;35029;50.804;12.866;2023-11-19T10:37:55;5.53;;;1.60;;
49193;SDS011;35029;50.804;12.866;2023-11-19T10:40:21;3.03;;;1.63;;
49193;SDS011;35029;50.804;12.866;2023-11-19T10:42:46;2.80;;;1.10;;
49193;SDS011;35029;50.804;12.866;2023-11-19T10:45:21;5.00;;;1.58;;
49193;SDS011;35029;50.804;12.866;2023-11-19T10:47:49;5.93;;;1.77;;
49193;SDS011;35029;50.804;12.866;2023-11-19T10:50:16;5.60;;;1.45;;
49193;SDS011;35029;50.804;12.866;2023-11-19T10:52:42;5.30;;;1.35;;
49193;SDS011;35029;50.804;12.866;2023-11-19T10:55:10;6.85;;;1.42;;
49193;SDS011;35029;50.804;12.866;2023-11-19T10:57:39;3.60;;;0.93;;
49193;SDS011;35029;50.804;12.866;2023-11-19T11:00:07;4.28;;;1.63;;
49193;SDS011;35029;50.804;12.866;2023-11-19T11:02:38;5.20;;;1.67;;
49193;SDS011;35029;50.804;12.866;2023-11-19T11:05:06;6.15;;;1.83;;
49193;SDS011;35029;50.804;12.866;2023-11-19T11:07:33;5.28;;;1.65;;
49193;SDS011;35029;50.804;12.866;2023-11-19T11:10:01;5.95;;;1.70;;
49193;SDS011;35029;50.804;12.866;2023-11-19T11:12:31;3.38;;;1.40;;
49193;SDS011;35029;50.804;12.866;2023-11-19T11:15:01;7.97;;;2.03;;
49193;SDS011;35029;50.804;12.866;2023-11-19T11:17:29;8.85;;;1.88;;
49193;SDS011;35029;50.804;12.866;2023-11-19T11:19:57;7.07;;;1.77;;
49193;SDS011;35029;50.804;12.866;2023-11-19T11:22:23;5.88;;;1.88;;
49193;SDS011;35029;50.804;12.866;2023-11-19T11:27:43;6.63;;;1.85;;
49193;SDS011;35029;50.804;12.866;2023-11-19T11:34:04;18.70;;;2.60;;
49193;SDS011;35029;50.804;12.866;2023-11-19T11:36:24;10.52;;;2.30;;
49193;SDS011;35029;50.804;12.866;2023-11-19T11:38:51;10.75;;;2.15;;
49193;SDS011;35029;50.804;12.866;2023-11-19T11:41:21;9.68;;;1.83;;
49193;SDS011;35029;50.804;12.866;2023-11-19T11:43:49;10.13;;;2.83;;
49193;SDS011;35029;50.804;12.866;2023-11-19T11:49:06;12.20;;;2.65;;
49193;SDS011;35029;50.804;12.866;2023-11-19T11:54:10;12.32;;;2.92;;
49193;SDS011;35029;50.804;12.866;2023-11-19T11:56:36;8.32;;;2.35;;
49193;SDS011;35029;50.804;12.866;2023-11-19T11:59:07;11.27;;;3.33;;
49193;SDS011;35029;50.804;12.866;2023-11-19T12:01:34;12.43;;;2.88;;
49193;SDS011;35029;50.804;12.866;2023-11-19T12:04:00;7.13;;;2.42;;
49193;SDS011;35029;50.804;12.866;2023-11-19T12:06:28;8.10;;;1.92;;
49193;SDS011;35029;50.804;12.866;2023-11-19T12:08:59;8.57;;;2.58;;
49193;SDS011;35029;50.804;12.866;2023-11-19T12:11:25;9.10;;;2.65;;
49193;SDS011;35029;50.804;12.866;2023-11-19T12:13:53;7.72;;;2.58;;
49193;SDS011;35029;50.804;12.866;2023-11-19T12:16:27;12.30;;;2.45;;
49193;SDS011;35029;50.804;12.866;2023-11-19T12:18:54;10.13;;;2.10;;
49193;SDS011;35029;50.804;12.866;2023-11-19T12:21:30;12.27;;;2.67;;
49193;SDS011;35029;50.804;12.866;2023-11-19T12:23:57;5.63;;;2.17;;
49193;SDS011;35029;50.804;12.866;2023-11-19T12:26:33;7.53;;;2.38;;
49193;SDS011;35029;50.804;12.866;2023-11-19T12:29:00;8.63;;;2.75;;
49193;SDS011;35029;50.804;12.866;2023-11-19T12:31:26;12.80;;;2.70;;
49193;SDS011;35029;50.804;12.866;2023-11-19T12:33:51;7.82;;;2.60;;
49193;SDS011;35029;50.804;12.866;2023-11-19T12:36:18;7.90;;;2.55;;
49193;SDS011;35029;50.804;12.866;2023-11-19T12:38:44;7.63;;;2.55;;
49193;SDS011;35029;50.804;12.866;2023-11-19T12:41:11;9.02;;;2.70;;
49193;SDS011;35029;50.804;12.866;2023-11-19T12:43:37;10.27;;;2.58;;
49193;SDS011;35029;50.804;12.866;2023-11-19T12:46:16;11.38;;;3.15;;
49193;SDS011;35029;50.804;12.866;2023-11-19T12:48:42;10.55;;;3.42;;
49193;SDS011;35029;50.804;12.866;2023-11-19T12:51:08;9.77;;;3.15;;
49193;SDS011;35029;50.804;12.866;2023-11-19T12:53:46;16.00;;;3.50;;
49193;SDS011;35029;50.804;12.866;2023-11-19T12:56:14;14.73;;;3.33;;
49193;SDS011;35029;50.804;12.866;2023-11-19T12:58:40;17.73;;;4.03;;
49193;SDS011;35029;50.804;12.866;2023-11-19T13:01:08;16.77;;;3.22;;
49193;SDS011;35029;50.804;12.866;2023-11-19T13:03:36;19.45;;;3.70;;
49193;SDS011;35029;50.804;12.866;2023-11-19T13:08:49;10.05;;;2.50;;
49193;SDS011;35029;50.804;12.866;2023-11-19T13:11:33;14.82;;;3.10;;
49193;SDS011;35029;50.804;12.866;2023-11-19T13:14:01;13.77;;;2.97;;
49193;SDS011;35029;50.804;12.866;2023-11-19T13:16:33;8.95;;;2.53;;
49193;SDS011;35029;50.804;12.866;2023-11-19T13:19:02;15.40;;;3.40;;
49193;SDS011;35029;50.804;12.866;2023-11-19T13:21:28;15.63;;;3.08;;
49193;SDS011;35029;50.804;12.866;2023-11-19T13:23:54;11.65;;;3.47;;
49193;SDS011;35029;50.804;12.866;2023-11-19T13:26:20;10.25;;;2.92;;
49193;SDS011;35029;50.804;12.866;2023-11-19T13:28:46;14.20;;;2.97;;
49193;SDS011;35029;50.804;12.866;2023-11-19T13:31:12;15.75;;;4.82;;
49193;SDS011;35029;50.804;12.866;2023-11-19T13:33:37;14.23;;;3.67;;
49193;SDS011;35029;50.804;12.866;2023-11-19T13:36:03;20.33;;;3.35;;
49193;SDS011;35029;50.804;12.866;2023-11-19T13:38:33;9.80;;;2.40;;
49193;SDS011;35029;50.804;12.866;2023-11-19T13:41:00;13.00;;;3.13;;
49193;SDS011;35029;50.804;12.866;2023-11-19T13:43:26;20.77;;;3.30;;
49193;SDS011;35029;50.804;12.866;2023-11-19T13:45:54;14.48;;;3.97;;
49193;SDS011;35029;50.804;12.866;2023-11-19T13:48:20;15.25;;;3.63;;
49193;SDS011;35029;50.804;12.866;2023-11-19T13:50:45;10.50;;;3.40;;
49193;SDS011;35029;50.804;12.866;2023-11-19T13:53:11;17.08;;;3.22;;
49193;SDS011;35029;50.804;12.866;2023-11-19T13:55:37;10.80;;;2.95;;
49193;SDS011;35029;50.804;12.866;2023-11-19T13:58:02;9.75;;;2.55;;
49193;SDS011;35029;50.804;12.866;2023-11-19T14:00:28;15.75;;;3.00;;
49193;SDS011;35029;50.804;12.866;2023-11-19T14:02:53;7.45;;;2.10;;
49193;SDS011;35029;50.804;12.866;2023-11-19T14:05:19;11.45;;;2.75;;
49193;SDS011;35029;50.804;12.866;2023-11-19T14:07:45;18.77;;;3.63;;
49193;SDS011;35029;50.804;12.866;2023-11-19T14:10:13;9.45;;;2.53;;
49193;SDS011;35029;50.804;12.866;2023-11-19T14:12:39;11.45;;;3.35;;
49193;SDS011;35029;50.804;12.866;2023-11-19T14:15:05;12.65;;;2.63;;
49193;SDS011;35029;50.804;12.866;2023-11-19T14:17:33;15.85;;;3.63;;
49193;SDS011;35029;50.804;12.866;2023-11-19T14:19:59;8.70;;;2.08;;
49193;SDS011;35029;50.804;12.866;2023-11-19T14:22:25;13.55;;;2.55;;
49193;SDS011;35029;50.804;12.866;2023-11-19T14:24:51;12.90;;;2.80;;
49193;SDS011;35029;50.804;12.866;2023-11-19T14:27:16;9.50;;;2.90;;
49193;SDS011;35029;50.804;12.866;2023-11-19T14:29:43;15.75;;;2.83;;
49193;SDS011;35029;50.804;12.866;2023-11-19T14:32:10;9.80;;;2.28;;
49193;SDS011;35029;50.804;12.866;2023-11-19T14:34:36;9.45;;;2.72;;
49193;SDS011;35029;50.804;12.866;2023-11-19T14:37:01;6.28;;;2.20;;
49193;SDS011;35029;50.804;12.866;2023-11-19T14:39:27;14.02;;;2.67;;
49193;SDS011;35029;50.804;12.866;2023-11-19T14:41:54;14.00;;;3.58;;
49193;SDS011;35029;50.804;12.866;2023-11-19T14:44:23;6.72;;;2.00;;
49193;SDS011;35029;50.804;12.866;2023-11-19T14:46:49;9.35;;;2.85;;
49193;SDS011;35029;50.804;12.866;2023-11-19T14:49:15;12.70;;;3.00;;